sensor_id;sensor_type;location;lat;lon;timestamp;P1;durP1;ratioP1;P2;durP2;ratioP2
23163;SDS011;31429;42.674;23.350;2022-12-24T00:00:34;64.10;;;41.67;;
23163;SDS011;31429;42.674;23.350;2022-12-24T00:01:34;60.77;;;39.83;;
23163;SDS011;31429;42.674;23.350;2022-12-24T00:02:35;55.17;;;40.95;;
23163;SDS011;31429;42.674;23.350;2022-12-24T00:03:36;55.37;;;40.10;;
23163;SDS011;31429;42.674;23.350;2022-12-24T00:04:39;56.38;;;40.15;;
23163;SDS011;31429;42.674;23.350;2022-12-24T00:05:39;52.58;;;38.60;;
23163;SDS011;31429;42.674;23.350;2022-12-24T00:06:40;52.97;;;38.97;;
23163;SDS011;31429;42.674;23.350;2022-12-24T00:07:40;55.83;;;39.37;;
23163;SDS011;31429;42.674;23.350;2022-12-24T00:08:41;54.03;;;40.43;;
23163;SDS011;31429;42.674;23.350;2022-12-24T00:09:42;55.53;;;40.70;;
23163;SDS011;31429;42.674;23.350;2022-12-24T00:10:42;59.70;;;39.77;;
23163;SDS011;31429;42.674;23.350;2022-12-24T00:11:43;56.80;;;39.33;;
23163;SDS011;31429;42.674;23.350;2022-12-24T00:12:44;51.90;;;38.47;;
23163;SDS011;31429;42.674;23.350;2022-12-24T00:13:44;52.00;;;38.07;;
23163;SDS011;31429;42.674;23.350;2022-12-24T00:14:45;54.20;;;37.20;;
23163;SDS011;31429;42.674;23.350;2022-12-24T00:15:46;52.73;;;37.67;;
23163;SDS011;31429;42.674;23.350;2022-12-24T00:16:46;54.83;;;38.97;;
23163;SDS011;31429;42.674;23.350;2022-12-24T00:17:47;54.20;;;39.03;;
23163;SDS011;31429;42.674;23.350;2022-12-24T00:18:48;50.83;;;35.80;;
23163;SDS011;31429;42.674;23.350;2022-12-24T00:19:50;43.53;;;33.87;;
23163;SDS011;31429;42.674;23.350;2022-12-24T00:20:50;51.13;;;34.67;;
23163;SDS011;31429;42.674;23.350;2022-12-24T00:21:51;44.63;;;32.27;;
23163;SDS011;31429;42.674;23.350;2022-12-24T00:22:52;45.33;;;32.67;;
23163;SDS011;31429;42.674;23.350;2022-12-24T00:23:52;46.73;;;33.27;;
23163;SDS011;31429;42.674;23.350;2022-12-24T00:24:53;47.07;;;33.80;;
23163;SDS011;31429;42.674;23.350;2022-12-24T00:25:54;46.07;;;34.00;;
23163;SDS011;31429;42.674;23.350;2022-12-24T00:26:54;50.33;;;33.67;;
23163;SDS011;31429;42.674;23.350;2022-12-24T00:27:55;49.00;;;33.60;;
23163;SDS011;31429;42.674;23.350;2022-12-24T00:28:56;43.77;;;31.93;;
23163;SDS011;31429;42.674;23.350;2022-12-24T00:29:57;48.97;;;35.30;;
23163;SDS011;31429;42.674;23.350;2022-12-24T00:30:57;46.53;;;33.13;;
23163;SDS011;31429;42.674;23.350;2022-12-24T00:31:58;54.10;;;34.40;;
23163;SDS011;31429;42.674;23.350;2022-12-24T00:32:59;42.17;;;32.17;;
23163;SDS011;31429;42.674;23.350;2022-12-24T00:33:59;46.67;;;34.60;;
23163;SDS011;31429;42.674;23.350;2022-12-24T00:35:01;44.83;;;32.27;;
23163;SDS011;31429;42.674;23.350;2022-12-24T00:36:02;43.97;;;30.98;;
23163;SDS011;31429;42.674;23.350;2022-12-24T00:37:04;41.97;;;31.17;;
23163;SDS011;31429;42.674;23.350;2022-12-24T00:38:06;41.80;;;30.88;;
23163;SDS011;31429;42.674;23.350;2022-12-24T00:39:07;40.00;;;29.35;;
23163;SDS011;31429;42.674;23.350;2022-12-24T00:40:08;37.80;;;28.77;;
23163;SDS011;31429;42.674;23.350;2022-12-24T00:41:09;43.85;;;31.50;;
23163;SDS011;31429;42.674;23.350;2022-12-24T00:42:23;41.97;;;31.90;;
23163;SDS011;31429;42.674;23.350;2022-12-24T00:43:23;41.47;;;32.00;;
23163;SDS011;31429;42.674;23.350;2022-12-24T00:44:24;39.53;;;29.57;;
23163;SDS011;31429;42.674;23.350;2022-12-24T00:45:25;39.70;;;29.67;;
23163;SDS011;31429;42.674;23.350;2022-12-24T00:46:29;42.25;;;30.92;;
23163;SDS011;31429;42.674;23.350;2022-12-24T00:47:31;45.70;;;31.13;;
23163;SDS011;31429;42.674;23.350;2022-12-24T00:48:31;42.93;;;31.30;;
23163;SDS011;31429;42.674;23.350;2022-12-24T00:49:32;42.90;;;31.00;;
23163;SDS011;31429;42.674;23.350;2022-12-24T00:50:34;41.50;;;31.40;;
23163;SDS011;31429;42.674;23.350;2022-12-24T00:51:35;43.90;;;30.85;;
23163;SDS011;31429;42.674;23.350;2022-12-24T00:52:36;42.85;;;31.15;;
23163;SDS011;31429;42.674;23.350;2022-12-24T00:53:36;38.67;;;29.63;;
23163;SDS011;31429;42.674;23.350;2022-12-24T00:54:37;43.83;;;30.83;;
23163;SDS011;31429;42.674;23.350;2022-12-24T00:55:38;42.20;;;30.40;;
23163;SDS011;31429;42.674;23.350;2022-12-24T00:56:38;37.77;;;28.57;;
23163;SDS011;31429;42.674;23.350;2022-12-24T00:57:39;36.73;;;28.00;;
23163;SDS011;31429;42.674;23.350;2022-12-24T00:58:39;44.03;;;30.20;;
23163;SDS011;31429;42.674;23.350;2022-12-24T00:59:40;44.27;;;30.47;;
23163;SDS011;31429;42.674;23.350;2022-12-24T01:00:41;42.20;;;30.00;;
23163;SDS011;31429;42.674;23.350;2022-12-24T01:01:41;42.23;;;30.33;;
23163;SDS011;31429;42.674;23.350;2022-12-24T01:02:42;41.73;;;31.50;;
23163;SDS011;31429;42.674;23.350;2022-12-24T01:03:43;41.03;;;30.67;;
23163;SDS011;31429;42.674;23.350;2022-12-24T01:04:43;40.40;;;30.80;;
23163;SDS011;31429;42.674;23.350;2022-12-24T01:06:04;46.58;;;31.10;;
23163;SDS011;31429;42.674;23.350;2022-12-24T01:07:06;44.63;;;31.60;;
23163;SDS011;31429;42.674;23.350;2022-12-24T01:08:07;41.53;;;29.63;;
23163;SDS011;31429;42.674;23.350;2022-12-24T01:09:07;41.50;;;30.37;;
23163;SDS011;31429;42.674;23.350;2022-12-24T01:10:09;42.63;;;30.93;;
23163;SDS011;31429;42.674;23.350;2022-12-24T01:11:11;42.13;;;30.80;;
23163;SDS011;31429;42.674;23.350;2022-12-24T01:12:12;41.25;;;30.58;;
23163;SDS011;31429;42.674;23.350;2022-12-24T01:13:13;39.20;;;29.43;;
23163;SDS011;31429;42.674;23.350;2022-12-24T01:14:14;44.50;;;32.17;;
23163;SDS011;31429;42.674;23.350;2022-12-24T01:15:15;41.60;;;32.47;;
23163;SDS011;31429;42.674;23.350;2022-12-24T01:16:18;45.58;;;33.70;;
23163;SDS011;31429;42.674;23.350;2022-12-24T01:17:19;44.90;;;31.33;;
23163;SDS011;31429;42.674;23.350;2022-12-24T01:18:20;44.70;;;31.83;;
23163;SDS011;31429;42.674;23.350;2022-12-24T01:19:21;42.53;;;32.65;;
23163;SDS011;31429;42.674;23.350;2022-12-24T01:20:22;46.73;;;33.47;;
23163;SDS011;31429;42.674;23.350;2022-12-24T01:21:24;45.20;;;31.67;;
23163;SDS011;31429;42.674;23.350;2022-12-24T01:22:25;47.55;;;32.95;;
23163;SDS011;31429;42.674;23.350;2022-12-24T01:23:26;42.30;;;32.13;;
23163;SDS011;31429;42.674;23.350;2022-12-24T01:24:27;41.75;;;31.70;;
23163;SDS011;31429;42.674;23.350;2022-12-24T01:25:27;43.40;;;31.30;;
23163;SDS011;31429;42.674;23.350;2022-12-24T01:26:28;41.37;;;31.27;;
23163;SDS011;31429;42.674;23.350;2022-12-24T01:27:29;40.13;;;31.43;;
23163;SDS011;31429;42.674;23.350;2022-12-24T01:28:30;44.07;;;31.80;;
23163;SDS011;31429;42.674;23.350;2022-12-24T01:29:31;41.67;;;31.85;;
23163;SDS011;31429;42.674;23.350;2022-12-24T01:30:32;41.57;;;31.60;;
23163;SDS011;31429;42.674;23.350;2022-12-24T01:31:33;43.97;;;31.97;;
23163;SDS011;31429;42.674;23.350;2022-12-24T01:32:33;45.03;;;32.40;;
23163;SDS011;31429;42.674;23.350;2022-12-24T01:33:34;43.33;;;32.43;;
23163;SDS011;31429;42.674;23.350;2022-12-24T01:34:35;43.33;;;30.90;;
23163;SDS011;31429;42.674;23.350;2022-12-24T01:35:37;42.33;;;32.57;;
23163;SDS011;31429;42.674;23.350;2022-12-24T01:36:40;42.20;;;32.30;;
23163;SDS011;31429;42.674;23.350;2022-12-24T01:37:40;46.45;;;33.63;;
23163;SDS011;31429;42.674;23.350;2022-12-24T01:38:42;43.40;;;31.52;;
23163;SDS011;31429;42.674;23.350;2022-12-24T01:39:42;42.77;;;31.90;;
23163;SDS011;31429;42.674;23.350;2022-12-24T01:40:43;55.97;;;40.27;;
23163;SDS011;31429;42.674;23.350;2022-12-24T01:42:08;59.03;;;43.17;;
23163;SDS011;31429;42.674;23.350;2022-12-24T01:43:34;53.67;;;37.65;;
23163;SDS011;31429;42.674;23.350;2022-12-24T01:44:37;44.30;;;33.60;;
23163;SDS011;31429;42.674;23.350;2022-12-24T01:45:42;45.30;;;35.60;;
23163;SDS011;31429;42.674;23.350;2022-12-24T01:46:45;47.30;;;36.83;;
23163;SDS011;31429;42.674;23.350;2022-12-24T01:47:47;53.00;;;37.38;;
23163;SDS011;31429;42.674;23.350;2022-12-24T01:48:48;55.23;;;38.10;;
23163;SDS011;31429;42.674;23.350;2022-12-24T01:49:53;58.40;;;40.50;;
23163;SDS011;31429;42.674;23.350;2022-12-24T01:50:57;61.13;;;41.65;;
23163;SDS011;31429;42.674;23.350;2022-12-24T01:52:03;62.42;;;45.05;;
23163;SDS011;31429;42.674;23.350;2022-12-24T01:53:06;62.75;;;45.38;;
23163;SDS011;31429;42.674;23.350;2022-12-24T01:54:10;78.72;;;55.42;;
23163;SDS011;31429;42.674;23.350;2022-12-24T01:55:15;79.60;;;58.05;;
23163;SDS011;31429;42.674;23.350;2022-12-24T01:56:17;89.78;;;60.10;;
23163;SDS011;31429;42.674;23.350;2022-12-24T01:57:20;71.90;;;51.60;;
23163;SDS011;31429;42.674;23.350;2022-12-24T01:58:23;57.13;;;44.38;;
23163;SDS011;31429;42.674;23.350;2022-12-24T01:59:25;57.00;;;41.65;;
23163;SDS011;31429;42.674;23.350;2022-12-24T02:00:26;62.47;;;45.70;;
23163;SDS011;31429;42.674;23.350;2022-12-24T02:01:27;64.40;;;46.40;;
23163;SDS011;31429;42.674;23.350;2022-12-24T02:02:27;62.90;;;45.83;;
23163;SDS011;31429;42.674;23.350;2022-12-24T02:03:28;56.67;;;40.67;;
23163;SDS011;31429;42.674;23.350;2022-12-24T02:04:31;55.97;;;39.00;;
23163;SDS011;31429;42.674;23.350;2022-12-24T02:05:35;57.95;;;41.50;;
23163;SDS011;31429;42.674;23.350;2022-12-24T02:06:44;67.68;;;48.95;;
23163;SDS011;31429;42.674;23.350;2022-12-24T02:07:46;65.80;;;48.40;;
23163;SDS011;31429;42.674;23.350;2022-12-24T02:08:47;87.97;;;59.80;;
23163;SDS011;31429;42.674;23.350;2022-12-24T02:09:48;75.80;;;52.87;;
23163;SDS011;31429;42.674;23.350;2022-12-24T02:10:52;69.85;;;49.70;;
23163;SDS011;31429;42.674;23.350;2022-12-24T02:11:53;73.27;;;49.60;;
23163;SDS011;31429;42.674;23.350;2022-12-24T02:12:53;76.30;;;52.03;;
23163;SDS011;31429;42.674;23.350;2022-12-24T02:13:56;73.60;;;50.70;;
23163;SDS011;31429;42.674;23.350;2022-12-24T02:14:59;78.05;;;56.13;;
23163;SDS011;31429;42.674;23.350;2022-12-24T02:16:01;74.75;;;52.28;;
23163;SDS011;31429;42.674;23.350;2022-12-24T02:17:09;70.15;;;52.15;;
23163;SDS011;31429;42.674;23.350;2022-12-24T02:18:19;69.57;;;50.22;;
23163;SDS011;31429;42.674;23.350;2022-12-24T02:19:45;80.07;;;52.70;;
23163;SDS011;31429;42.674;23.350;2022-12-24T02:21:22;55.28;;;39.10;;
23163;SDS011;31429;42.674;23.350;2022-12-24T02:22:40;61.70;;;44.22;;
23163;SDS011;31429;42.674;23.350;2022-12-24T02:23:57;65.45;;;44.03;;
23163;SDS011;31429;42.674;23.350;2022-12-24T02:25:23;54.75;;;37.42;;
23163;SDS011;31429;42.674;23.350;2022-12-24T02:26:46;69.07;;;48.63;;
23163;SDS011;31429;42.674;23.350;2022-12-24T02:28:10;71.45;;;51.85;;
23163;SDS011;31429;42.674;23.350;2022-12-24T02:29:27;59.65;;;42.67;;
23163;SDS011;31429;42.674;23.350;2022-12-24T02:30:59;69.50;;;47.28;;
23163;SDS011;31429;42.674;23.350;2022-12-24T02:32:04;68.13;;;45.15;;
23163;SDS011;31429;42.674;23.350;2022-12-24T02:33:12;62.30;;;45.35;;
23163;SDS011;31429;42.674;23.350;2022-12-24T02:34:17;62.78;;;44.03;;
23163;SDS011;31429;42.674;23.350;2022-12-24T02:35:31;65.05;;;46.05;;
23163;SDS011;31429;42.674;23.350;2022-12-24T02:36:37;68.85;;;47.80;;
23163;SDS011;31429;42.674;23.350;2022-12-24T02:37:43;66.40;;;46.28;;
23163;SDS011;31429;42.674;23.350;2022-12-24T02:38:50;63.78;;;45.13;;
23163;SDS011;31429;42.674;23.350;2022-12-24T02:40:00;66.93;;;47.10;;
23163;SDS011;31429;42.674;23.350;2022-12-24T02:41:06;68.63;;;48.13;;
23163;SDS011;31429;42.674;23.350;2022-12-24T02:42:10;60.30;;;45.95;;
23163;SDS011;31429;42.674;23.350;2022-12-24T02:43:15;67.13;;;45.20;;
23163;SDS011;31429;42.674;23.350;2022-12-24T02:44:19;68.25;;;48.45;;
23163;SDS011;31429;42.674;23.350;2022-12-24T02:45:24;64.50;;;47.15;;
23163;SDS011;31429;42.674;23.350;2022-12-24T02:46:28;60.22;;;44.05;;
23163;SDS011;31429;42.674;23.350;2022-12-24T02:47:31;70.50;;;48.75;;
23163;SDS011;31429;42.674;23.350;2022-12-24T02:48:33;63.22;;;46.22;;
23163;SDS011;31429;42.674;23.350;2022-12-24T02:49:37;60.40;;;42.90;;
23163;SDS011;31429;42.674;23.350;2022-12-24T02:50:37;66.07;;;47.20;;
23163;SDS011;31429;42.674;23.350;2022-12-24T02:51:38;69.10;;;47.63;;
23163;SDS011;31429;42.674;23.350;2022-12-24T02:52:39;66.87;;;47.13;;
23163;SDS011;31429;42.674;23.350;2022-12-24T02:53:41;66.22;;;46.90;;
23163;SDS011;31429;42.674;23.350;2022-12-24T02:54:42;63.73;;;47.37;;
23163;SDS011;31429;42.674;23.350;2022-12-24T02:55:43;63.93;;;46.67;;
23163;SDS011;31429;42.674;23.350;2022-12-24T02:56:56;66.25;;;46.58;;
23163;SDS011;31429;42.674;23.350;2022-12-24T02:58:10;60.88;;;45.25;;
23163;SDS011;31429;42.674;23.350;2022-12-24T02:59:28;62.28;;;45.40;;
23163;SDS011;31429;42.674;23.350;2022-12-24T03:00:45;67.75;;;47.38;;
23163;SDS011;31429;42.674;23.350;2022-12-24T03:01:56;71.63;;;46.05;;
23163;SDS011;31429;42.674;23.350;2022-12-24T03:03:11;67.30;;;45.95;;
23163;SDS011;31429;42.674;23.350;2022-12-24T03:04:22;65.13;;;46.38;;
23163;SDS011;31429;42.674;23.350;2022-12-24T03:05:40;65.75;;;44.92;;
23163;SDS011;31429;42.674;23.350;2022-12-24T03:06:49;66.18;;;46.42;;
23163;SDS011;31429;42.674;23.350;2022-12-24T03:07:59;67.55;;;46.63;;
23163;SDS011;31429;42.674;23.350;2022-12-24T03:09:05;65.35;;;45.95;;
23163;SDS011;31429;42.674;23.350;2022-12-24T03:10:14;64.55;;;46.33;;
23163;SDS011;31429;42.674;23.350;2022-12-24T03:11:19;64.28;;;47.85;;
23163;SDS011;31429;42.674;23.350;2022-12-24T03:12:21;65.70;;;45.77;;
23163;SDS011;31429;42.674;23.350;2022-12-24T03:13:28;62.03;;;46.10;;
23163;SDS011;31429;42.674;23.350;2022-12-24T03:14:29;62.50;;;44.17;;
23163;SDS011;31429;42.674;23.350;2022-12-24T03:15:31;57.95;;;44.60;;
23163;SDS011;31429;42.674;23.350;2022-12-24T03:16:34;64.85;;;45.35;;
23163;SDS011;31429;42.674;23.350;2022-12-24T03:17:35;62.97;;;44.70;;
23163;SDS011;31429;42.674;23.350;2022-12-24T03:18:39;60.92;;;44.53;;
23163;SDS011;31429;42.674;23.350;2022-12-24T03:19:43;60.80;;;43.97;;
23163;SDS011;31429;42.674;23.350;2022-12-24T03:20:46;63.38;;;46.78;;
23163;SDS011;31429;42.674;23.350;2022-12-24T03:21:51;64.82;;;46.60;;
23163;SDS011;31429;42.674;23.350;2022-12-24T03:22:55;64.88;;;45.17;;
23163;SDS011;31429;42.674;23.350;2022-12-24T03:23:56;62.47;;;44.95;;
23163;SDS011;31429;42.674;23.350;2022-12-24T03:24:57;58.83;;;44.65;;
23163;SDS011;31429;42.674;23.350;2022-12-24T03:25:58;62.30;;;43.70;;
23163;SDS011;31429;42.674;23.350;2022-12-24T03:27:03;66.15;;;46.22;;
23163;SDS011;31429;42.674;23.350;2022-12-24T03:28:05;81.50;;;57.20;;
23163;SDS011;31429;42.674;23.350;2022-12-24T03:29:07;85.85;;;59.10;;
23163;SDS011;31429;42.674;23.350;2022-12-24T03:30:09;74.00;;;51.40;;
23163;SDS011;31429;42.674;23.350;2022-12-24T03:31:13;80.63;;;56.70;;
23163;SDS011;31429;42.674;23.350;2022-12-24T03:32:16;73.47;;;53.22;;
23163;SDS011;31429;42.674;23.350;2022-12-24T03:33:23;71.95;;;52.55;;
23163;SDS011;31429;42.674;23.350;2022-12-24T03:34:24;102.07;;;70.60;;
23163;SDS011;31429;42.674;23.350;2022-12-24T03:35:24;124.97;;;89.47;;
23163;SDS011;31429;42.674;23.350;2022-12-24T03:36:25;116.20;;;79.07;;
23163;SDS011;31429;42.674;23.350;2022-12-24T03:37:29;100.13;;;72.32;;
23163;SDS011;31429;42.674;23.350;2022-12-24T03:38:30;103.70;;;69.67;;
23163;SDS011;31429;42.674;23.350;2022-12-24T03:39:31;94.23;;;63.63;;
23163;SDS011;31429;42.674;23.350;2022-12-24T03:40:32;87.30;;;61.70;;
23163;SDS011;31429;42.674;23.350;2022-12-24T03:41:32;100.15;;;70.72;;
23163;SDS011;31429;42.674;23.350;2022-12-24T03:42:33;119.57;;;79.97;;
23163;SDS011;31429;42.674;23.350;2022-12-24T03:43:34;124.13;;;87.13;;
23163;SDS011;31429;42.674;23.350;2022-12-24T03:44:34;150.63;;;102.23;;
23163;SDS011;31429;42.674;23.350;2022-12-24T03:45:35;149.33;;;100.73;;
23163;SDS011;31429;42.674;23.350;2022-12-24T03:46:36;148.87;;;104.43;;
23163;SDS011;31429;42.674;23.350;2022-12-24T03:47:38;159.73;;;110.73;;
23163;SDS011;31429;42.674;23.350;2022-12-24T03:48:38;165.02;;;114.18;;
23163;SDS011;31429;42.674;23.350;2022-12-24T03:49:39;166.27;;;116.00;;
23163;SDS011;31429;42.674;23.350;2022-12-24T03:50:40;128.87;;;94.13;;
23163;SDS011;31429;42.674;23.350;2022-12-24T03:51:40;144.00;;;98.57;;
23163;SDS011;31429;42.674;23.350;2022-12-24T03:52:41;148.50;;;102.97;;
23163;SDS011;31429;42.674;23.350;2022-12-24T03:53:42;151.83;;;109.60;;
23163;SDS011;31429;42.674;23.350;2022-12-24T03:54:42;157.37;;;107.47;;
23163;SDS011;31429;42.674;23.350;2022-12-24T03:55:43;166.47;;;116.70;;
23163;SDS011;31429;42.674;23.350;2022-12-24T03:56:43;162.50;;;112.13;;
23163;SDS011;31429;42.674;23.350;2022-12-24T03:57:44;158.87;;;112.67;;
23163;SDS011;31429;42.674;23.350;2022-12-24T03:58:45;167.33;;;116.87;;
23163;SDS011;31429;42.674;23.350;2022-12-24T03:59:45;156.43;;;109.97;;
23163;SDS011;31429;42.674;23.350;2022-12-24T04:00:46;139.00;;;97.37;;
23163;SDS011;31429;42.674;23.350;2022-12-24T04:01:47;140.63;;;100.23;;
23163;SDS011;31429;42.674;23.350;2022-12-24T04:02:49;160.63;;;114.30;;
23163;SDS011;31429;42.674;23.350;2022-12-24T04:03:49;161.88;;;112.80;;
23163;SDS011;31429;42.674;23.350;2022-12-24T04:04:50;140.43;;;99.70;;
23163;SDS011;31429;42.674;23.350;2022-12-24T04:05:58;140.33;;;98.30;;
23163;SDS011;31429;42.674;23.350;2022-12-24T04:07:00;158.80;;;110.25;;
23163;SDS011;31429;42.674;23.350;2022-12-24T04:08:01;144.73;;;100.60;;
23163;SDS011;31429;42.674;23.350;2022-12-24T04:09:01;160.20;;;113.37;;
23163;SDS011;31429;42.674;23.350;2022-12-24T04:10:04;165.68;;;114.50;;
23163;SDS011;31429;42.674;23.350;2022-12-24T04:11:06;152.60;;;103.78;;
23163;SDS011;31429;42.674;23.350;2022-12-24T04:12:07;144.52;;;102.78;;
23163;SDS011;31429;42.674;23.350;2022-12-24T04:13:08;143.63;;;99.73;;
23163;SDS011;31429;42.674;23.350;2022-12-24T04:14:09;152.20;;;106.70;;
23163;SDS011;31429;42.674;23.350;2022-12-24T04:15:09;148.20;;;104.97;;
23163;SDS011;31429;42.674;23.350;2022-12-24T04:16:11;167.27;;;109.45;;
23163;SDS011;31429;42.674;23.350;2022-12-24T04:17:12;153.43;;;108.45;;
23163;SDS011;31429;42.674;23.350;2022-12-24T04:18:14;145.53;;;101.57;;
23163;SDS011;31429;42.674;23.350;2022-12-24T04:19:15;143.25;;;99.80;;
23163;SDS011;31429;42.674;23.350;2022-12-24T04:20:16;137.30;;;96.47;;
23163;SDS011;31429;42.674;23.350;2022-12-24T04:21:16;137.53;;;96.47;;
23163;SDS011;31429;42.674;23.350;2022-12-24T04:22:17;145.13;;;103.63;;
23163;SDS011;31429;42.674;23.350;2022-12-24T04:23:18;141.03;;;99.53;;
23163;SDS011;31429;42.674;23.350;2022-12-24T04:24:19;130.20;;;92.90;;
23163;SDS011;31429;42.674;23.350;2022-12-24T04:25:19;129.73;;;93.23;;
23163;SDS011;31429;42.674;23.350;2022-12-24T04:26:20;137.50;;;96.80;;
23163;SDS011;31429;42.674;23.350;2022-12-24T04:27:21;132.13;;;94.07;;
23163;SDS011;31429;42.674;23.350;2022-12-24T04:28:21;130.33;;;93.07;;
23163;SDS011;31429;42.674;23.350;2022-12-24T04:29:22;131.90;;;93.03;;
23163;SDS011;31429;42.674;23.350;2022-12-24T04:30:23;123.90;;;87.73;;
23163;SDS011;31429;42.674;23.350;2022-12-24T04:31:23;113.03;;;82.97;;
23163;SDS011;31429;42.674;23.350;2022-12-24T04:32:24;89.40;;;67.03;;
23163;SDS011;31429;42.674;23.350;2022-12-24T04:33:26;89.53;;;65.10;;
23163;SDS011;31429;42.674;23.350;2022-12-24T04:34:27;83.05;;;60.97;;
23163;SDS011;31429;42.674;23.350;2022-12-24T04:35:28;85.83;;;61.20;;
23163;SDS011;31429;42.674;23.350;2022-12-24T04:36:29;93.30;;;64.77;;
23163;SDS011;31429;42.674;23.350;2022-12-24T04:37:29;99.50;;;67.80;;
23163;SDS011;31429;42.674;23.350;2022-12-24T04:38:30;97.13;;;69.37;;
23163;SDS011;31429;42.674;23.350;2022-12-24T04:39:31;103.05;;;72.38;;
23163;SDS011;31429;42.674;23.350;2022-12-24T04:40:32;96.10;;;71.90;;
23163;SDS011;31429;42.674;23.350;2022-12-24T04:41:33;88.57;;;63.30;;
23163;SDS011;31429;42.674;23.350;2022-12-24T04:42:34;87.00;;;61.13;;
23163;SDS011;31429;42.674;23.350;2022-12-24T04:43:34;82.13;;;60.03;;
23163;SDS011;31429;42.674;23.350;2022-12-24T04:44:35;88.63;;;61.87;;
23163;SDS011;31429;42.674;23.350;2022-12-24T04:45:35;104.63;;;74.57;;
23163;SDS011;31429;42.674;23.350;2022-12-24T04:46:36;80.13;;;56.33;;
23163;SDS011;31429;42.674;23.350;2022-12-24T04:47:37;125.00;;;85.03;;
23163;SDS011;31429;42.674;23.350;2022-12-24T04:48:39;114.93;;;79.57;;
23163;SDS011;31429;42.674;23.350;2022-12-24T04:49:40;106.57;;;73.88;;
23163;SDS011;31429;42.674;23.350;2022-12-24T04:50:41;144.30;;;96.27;;
23163;SDS011;31429;42.674;23.350;2022-12-24T04:51:41;188.37;;;125.87;;
23163;SDS011;31429;42.674;23.350;2022-12-24T04:52:42;232.67;;;151.20;;
23163;SDS011;31429;42.674;23.350;2022-12-24T04:53:43;136.80;;;93.87;;
23163;SDS011;31429;42.674;23.350;2022-12-24T04:54:44;142.32;;;95.63;;
23163;SDS011;31429;42.674;23.350;2022-12-24T04:55:44;94.63;;;65.43;;
23163;SDS011;31429;42.674;23.350;2022-12-24T04:56:45;88.50;;;60.50;;
23163;SDS011;31429;42.674;23.350;2022-12-24T04:57:46;143.77;;;97.73;;
23163;SDS011;31429;42.674;23.350;2022-12-24T04:58:46;114.60;;;79.07;;
23163;SDS011;31429;42.674;23.350;2022-12-24T04:59:48;116.60;;;79.07;;
23163;SDS011;31429;42.674;23.350;2022-12-24T05:00:48;114.63;;;80.20;;
23163;SDS011;31429;42.674;23.350;2022-12-24T05:01:49;98.23;;;68.50;;
23163;SDS011;31429;42.674;23.350;2022-12-24T05:02:50;84.30;;;57.83;;
23163;SDS011;31429;42.674;23.350;2022-12-24T05:03:52;76.27;;;54.03;;
23163;SDS011;31429;42.674;23.350;2022-12-24T05:04:53;73.32;;;50.30;;
23163;SDS011;31429;42.674;23.350;2022-12-24T05:05:59;71.77;;;50.27;;
23163;SDS011;31429;42.674;23.350;2022-12-24T05:07:00;81.43;;;57.20;;
23163;SDS011;31429;42.674;23.350;2022-12-24T05:08:01;79.43;;;54.00;;
23163;SDS011;31429;42.674;23.350;2022-12-24T05:09:01;78.30;;;53.87;;
23163;SDS011;31429;42.674;23.350;2022-12-24T05:10:02;76.70;;;55.77;;
23163;SDS011;31429;42.674;23.350;2022-12-24T05:11:04;75.55;;;54.28;;
23163;SDS011;31429;42.674;23.350;2022-12-24T05:12:05;75.30;;;53.00;;
23163;SDS011;31429;42.674;23.350;2022-12-24T05:13:06;73.63;;;51.50;;
23163;SDS011;31429;42.674;23.350;2022-12-24T05:14:07;76.60;;;55.40;;
23163;SDS011;31429;42.674;23.350;2022-12-24T05:15:07;82.67;;;59.37;;
23163;SDS011;31429;42.674;23.350;2022-12-24T05:16:08;81.03;;;58.70;;
23163;SDS011;31429;42.674;23.350;2022-12-24T05:17:10;80.97;;;54.67;;
23163;SDS011;31429;42.674;23.350;2022-12-24T05:18:10;72.80;;;54.43;;
23163;SDS011;31429;42.674;23.350;2022-12-24T05:19:12;71.23;;;50.93;;
23163;SDS011;31429;42.674;23.350;2022-12-24T05:20:13;74.50;;;54.67;;
23163;SDS011;31429;42.674;23.350;2022-12-24T05:21:15;77.07;;;54.27;;
23163;SDS011;31429;42.674;23.350;2022-12-24T05:22:18;78.05;;;55.03;;
23163;SDS011;31429;42.674;23.350;2022-12-24T05:23:37;78.72;;;53.45;;
23163;SDS011;31429;42.674;23.350;2022-12-24T05:24:56;71.07;;;52.72;;
23163;SDS011;31429;42.674;23.350;2022-12-24T05:26:16;75.95;;;53.15;;
23163;SDS011;31429;42.674;23.350;2022-12-24T05:27:28;73.97;;;53.60;;
23163;SDS011;31429;42.674;23.350;2022-12-24T05:28:29;75.27;;;51.43;;
23163;SDS011;31429;42.674;23.350;2022-12-24T05:29:30;77.87;;;54.47;;
23163;SDS011;31429;42.674;23.350;2022-12-24T05:30:30;67.37;;;49.90;;
23163;SDS011;31429;42.674;23.350;2022-12-24T05:31:32;73.07;;;53.53;;
23163;SDS011;31429;42.674;23.350;2022-12-24T05:32:33;73.53;;;52.80;;
23163;SDS011;31429;42.674;23.350;2022-12-24T05:33:34;75.13;;;53.47;;
23163;SDS011;31429;42.674;23.350;2022-12-24T05:34:35;73.23;;;51.27;;
23163;SDS011;31429;42.674;23.350;2022-12-24T05:35:36;73.78;;;51.78;;
23163;SDS011;31429;42.674;23.350;2022-12-24T05:36:37;74.63;;;52.43;;
23163;SDS011;31429;42.674;23.350;2022-12-24T05:37:38;69.40;;;51.40;;
23163;SDS011;31429;42.674;23.350;2022-12-24T05:38:38;76.07;;;52.73;;
23163;SDS011;31429;42.674;23.350;2022-12-24T05:39:39;70.10;;;52.83;;
23163;SDS011;31429;42.674;23.350;2022-12-24T05:40:40;76.57;;;53.87;;
23163;SDS011;31429;42.674;23.350;2022-12-24T05:41:40;75.57;;;53.40;;
23163;SDS011;31429;42.674;23.350;2022-12-24T05:42:41;71.93;;;52.80;;
23163;SDS011;31429;42.674;23.350;2022-12-24T05:43:42;71.67;;;51.13;;
23163;SDS011;31429;42.674;23.350;2022-12-24T05:44:42;78.50;;;53.30;;
23163;SDS011;31429;42.674;23.350;2022-12-24T05:45:43;75.33;;;53.57;;
23163;SDS011;31429;42.674;23.350;2022-12-24T05:46:44;75.43;;;53.13;;
23163;SDS011;31429;42.674;23.350;2022-12-24T05:47:44;79.60;;;54.20;;
23163;SDS011;31429;42.674;23.350;2022-12-24T05:48:45;72.93;;;53.03;;
23163;SDS011;31429;42.674;23.350;2022-12-24T05:49:48;75.40;;;53.10;;
23163;SDS011;31429;42.674;23.350;2022-12-24T05:50:48;75.65;;;52.78;;
23163;SDS011;31429;42.674;23.350;2022-12-24T05:51:49;71.50;;;52.17;;
23163;SDS011;31429;42.674;23.350;2022-12-24T05:52:49;72.07;;;51.27;;
23163;SDS011;31429;42.674;23.350;2022-12-24T05:53:50;75.73;;;53.03;;
23163;SDS011;31429;42.674;23.350;2022-12-24T05:54:51;71.22;;;52.00;;
23163;SDS011;31429;42.674;23.350;2022-12-24T05:55:52;71.20;;;51.27;;
23163;SDS011;31429;42.674;23.350;2022-12-24T05:56:52;71.27;;;51.00;;
23163;SDS011;31429;42.674;23.350;2022-12-24T05:57:53;70.90;;;49.83;;
23163;SDS011;31429;42.674;23.350;2022-12-24T05:58:54;66.23;;;47.97;;
23163;SDS011;31429;42.674;23.350;2022-12-24T05:59:54;68.33;;;49.17;;
23163;SDS011;31429;42.674;23.350;2022-12-24T06:00:55;65.67;;;46.20;;
23163;SDS011;31429;42.674;23.350;2022-12-24T06:01:56;68.73;;;48.13;;